sensor_id;sensor_type;location;lat;lon;timestamp;temperature;humidity
24232;DHT22;12364;47.810;8.810;2023-02-13T04:47:52;8.00;96.50
24232;DHT22;12364;47.810;8.810;2023-02-13T04:50:25;8.00;96.70
24232;DHT22;12364;47.810;8.810;2023-02-13T04:52:53;8.00;96.60
24232;DHT22;12364;47.810;8.810;2023-02-13T04:55:22;7.90;96.70
24232;DHT22;12364;47.810;8.810;2023-02-13T04:57:52;7.90;96.70
24232;DHT22;12364;47.810;8.810;2023-02-13T05:00:20;7.90;96.70
24232;DHT22;12364;47.810;8.810;2023-02-13T05:02:47;7.90;96.70
24232;DHT22;12364;47.810;8.810;2023-02-13T05:05:14;7.90;96.70
24232;DHT22;12364;47.810;8.810;2023-02-13T05:07:41;7.90;96.60
24232;DHT22;12364;47.810;8.810;2023-02-13T05:10:09;7.80;96.50
24232;DHT22;12364;47.810;8.810;2023-02-13T05:12:36;7.80;96.60
24232;DHT22;12364;47.810;8.810;2023-02-13T05:15:04;7.80;96.60
24232;DHT22;12364;47.810;8.810;2023-02-13T05:17:31;7.80;96.70
24232;DHT22;12364;47.810;8.810;2023-02-13T05:19:58;7.80;96.80
24232;DHT22;12364;47.810;8.810;2023-02-13T05:22:25;7.80;96.80
24232;DHT22;12364;47.810;8.810;2023-02-13T05:25:11;7.80;96.60
24232;DHT22;12364;47.810;8.810;2023-02-13T05:27:38;7.80;96.70
24232;DHT22;12364;47.810;8.810;2023-02-13T05:30:05;7.80;96.60
24232;DHT22;12364;47.810;8.810;2023-02-13T05:32:32;7.90;96.60
24232;DHT22;12364;47.810;8.810;2023-02-13T05:35:00;7.90;96.60
24232;DHT22;12364;47.810;8.810;2023-02-13T05:37:30;7.80;96.50
24232;DHT22;12364;47.810;8.810;2023-02-13T05:39:57;7.80;96.50
24232;DHT22;12364;47.810;8.810;2023-02-13T05:42:24;7.80;96.50
24232;DHT22;12364;47.810;8.810;2023-02-13T05:44:51;7.80;96.50
24232;DHT22;12364;47.810;8.810;2023-02-13T05:47:18;7.80;96.50
24232;DHT22;12364;47.810;8.810;2023-02-13T05:49:45;7.80;96.50
24232;DHT22;12364;47.810;8.810;2023-02-13T05:52:11;7.80;96.50
24232;DHT22;12364;47.810;8.810;2023-02-13T05:54:38;7.80;96.40
24232;DHT22;12364;47.810;8.810;2023-02-13T05:57:05;7.70;96.30
24232;DHT22;12364;47.810;8.810;2023-02-13T05:59:32;7.70;96.40
24232;DHT22;12364;47.810;8.810;2023-02-13T06:01:59;7.80;96.40
24232;DHT22;12364;47.810;8.810;2023-02-13T06:04:26;7.70;96.40
24232;DHT22;12364;47.810;8.810;2023-02-13T06:06:53;7.70;96.40
24232;DHT22;12364;47.810;8.810;2023-02-13T06:09:20;7.80;96.40
24232;DHT22;12364;47.810;8.810;2023-02-13T06:11:47;7.70;96.50
24232;DHT22;12364;47.810;8.810;2023-02-13T06:14:14;7.70;96.40
24232;DHT22;12364;47.810;8.810;2023-02-13T06:16:41;7.70;96.40
24232;DHT22;12364;47.810;8.810;2023-02-13T06:19:08;7.70;96.40
24232;DHT22;12364;47.810;8.810;2023-02-13T06:21:35;7.60;96.40
24232;DHT22;12364;47.810;8.810;2023-02-13T06:24:04;7.50;96.50
24232;DHT22;12364;47.810;8.810;2023-02-13T06:26:31;7.50;96.50
24232;DHT22;12364;47.810;8.810;2023-02-13T06:28:58;7.50;96.50
24232;DHT22;12364;47.810;8.810;2023-02-13T06:31:26;7.50;96.50
24232;DHT22;12364;47.810;8.810;2023-02-13T06:33:53;7.50;96.50
24232;DHT22;12364;47.810;8.810;2023-02-13T06:36:20;7.50;96.50
24232;DHT22;12364;47.810;8.810;2023-02-13T06:38:47;7.50;96.60
24232;DHT22;12364;47.810;8.810;2023-02-13T06:41:14;7.40;96.60
24232;DHT22;12364;47.810;8.810;2023-02-13T06:43:41;7.40;96.60
24232;DHT22;12364;47.810;8.810;2023-02-13T06:46:08;7.50;96.70
24232;DHT22;12364;47.810;8.810;2023-02-13T06:48:36;7.50;96.60
24232;DHT22;12364;47.810;8.810;2023-02-13T06:51:03;7.40;96.60
24232;DHT22;12364;47.810;8.810;2023-02-13T06:53:30;7.40;96.70
24232;DHT22;12364;47.810;8.810;2023-02-13T06:55:57;7.40;96.80
24232;DHT22;12364;47.810;8.810;2023-02-13T06:58:24;7.50;96.80
24232;DHT22;12364;47.810;8.810;2023-02-13T07:00:52;7.50;96.80
24232;DHT22;12364;47.810;8.810;2023-02-13T07:03:19;7.50;96.80
24232;DHT22;12364;47.810;8.810;2023-02-13T07:05:46;7.40;96.80
24232;DHT22;12364;47.810;8.810;2023-02-13T07:08:13;7.40;96.80
24232;DHT22;12364;47.810;8.810;2023-02-13T07:10:40;7.40;96.90
24232;DHT22;12364;47.810;8.810;2023-02-13T07:13:07;7.50;96.90
24232;DHT22;12364;47.810;8.810;2023-02-13T07:15:35;7.50;96.90
24232;DHT22;12364;47.810;8.810;2023-02-13T07:18:02;7.60;97.00
24232;DHT22;12364;47.810;8.810;2023-02-13T07:20:29;7.60;96.80
24232;DHT22;12364;47.810;8.810;2023-02-13T07:22:57;7.60;96.80
24232;DHT22;12364;47.810;8.810;2023-02-13T07:25:25;7.60;96.80
24232;DHT22;12364;47.810;8.810;2023-02-13T07:27:52;7.60;96.80
24232;DHT22;12364;47.810;8.810;2023-02-13T07:30:19;7.60;96.90
24232;DHT22;12364;47.810;8.810;2023-02-13T07:32:46;7.60;96.80
24232;DHT22;12364;47.810;8.810;2023-02-13T07:35:13;7.60;96.80
24232;DHT22;12364;47.810;8.810;2023-02-13T07:37:40;7.60;96.80
24232;DHT22;12364;47.810;8.810;2023-02-13T07:40:07;7.60;96.80
24232;DHT22;12364;47.810;8.810;2023-02-13T07:42:34;7.60;96.90
24232;DHT22;12364;47.810;8.810;2023-02-13T07:45:01;7.60;96.90
24232;DHT22;12364;47.810;8.810;2023-02-13T07:47:32;7.60;96.90
24232;DHT22;12364;47.810;8.810;2023-02-13T07:49:59;7.60;96.90
24232;DHT22;12364;47.810;8.810;2023-02-13T07:52:25;7.50;97.00
24232;DHT22;12364;47.810;8.810;2023-02-13T07:54:52;7.50;97.10
24232;DHT22;12364;47.810;8.810;2023-02-13T07:57:19;7.50;97.30
24232;DHT22;12364;47.810;8.810;2023-02-13T07:59:46;7.50;97.10
24232;DHT22;12364;47.810;8.810;2023-02-13T08:02:13;7.50;97.00
24232;DHT22;12364;47.810;8.810;2023-02-13T08:04:41;7.50;97.10
24232;DHT22;12364;47.810;8.810;2023-02-13T08:07:12;7.50;97.00
24232;DHT22;12364;47.810;8.810;2023-02-13T08:09:39;7.50;97.20
24232;DHT22;12364;47.810;8.810;2023-02-13T08:12:25;7.50;97.30
24232;DHT22;12364;47.810;8.810;2023-02-13T08:14:52;7.50;97.20
24232;DHT22;12364;47.810;8.810;2023-02-13T08:17:19;7.50;97.30
24232;DHT22;12364;47.810;8.810;2023-02-13T08:19:46;7.50;97.20
24232;DHT22;12364;47.810;8.810;2023-02-13T08:22:13;7.50;97.40
24232;DHT22;12364;47.810;8.810;2023-02-13T08:24:40;7.50;97.20
24232;DHT22;12364;47.810;8.810;2023-02-13T08:27:10;7.50;97.30
24232;DHT22;12364;47.810;8.810;2023-02-13T08:29:37;7.50;97.40
24232;DHT22;12364;47.810;8.810;2023-02-13T08:32:04;7.60;97.40
24232;DHT22;12364;47.810;8.810;2023-02-13T08:34:31;7.70;97.40
24232;DHT22;12364;47.810;8.810;2023-02-13T08:36:58;7.70;97.30
24232;DHT22;12364;47.810;8.810;2023-02-13T08:39:24;7.80;97.20
24232;DHT22;12364;47.810;8.810;2023-02-13T08:41:51;7.70;97.30
24232;DHT22;12364;47.810;8.810;2023-02-13T08:44:18;7.70;97.30
24232;DHT22;12364;47.810;8.810;2023-02-13T08:46:45;7.80;97.40
24232;DHT22;12364;47.810;8.810;2023-02-13T08:49:12;7.70;97.40
24232;DHT22;12364;47.810;8.810;2023-02-13T08:51:39;7.70;97.50
24232;DHT22;12364;47.810;8.810;2023-02-13T08:54:06;7.70;97.50
24232;DHT22;12364;47.810;8.810;2023-02-13T08:56:33;7.80;97.50
24232;DHT22;12364;47.810;8.810;2023-02-13T08:59:00;7.80;97.50
24232;DHT22;12364;47.810;8.810;2023-02-13T09:01:27;7.80;97.40
24232;DHT22;12364;47.810;8.810;2023-02-13T09:03:54;7.80;97.40
24232;DHT22;12364;47.810;8.810;2023-02-13T09:06:21;7.80;97.30
24232;DHT22;12364;47.810;8.810;2023-02-13T09:08:48;7.80;97.30
24232;DHT22;12364;47.810;8.810;2023-02-13T09:11:15;7.80;97.40
24232;DHT22;12364;47.810;8.810;2023-02-13T09:13:42;7.80;97.40
24232;DHT22;12364;47.810;8.810;2023-02-13T09:16:10;7.90;97.40
24232;DHT22;12364;47.810;8.810;2023-02-13T09:18:37;7.90;97.80
24232;DHT22;12364;47.810;8.810;2023-02-13T09:21:05;7.90;97.60
24232;DHT22;12364;47.810;8.810;2023-02-13T09:23:35;7.90;97.50
24232;DHT22;12364;47.810;8.810;2023-02-13T09:26:03;7.90;97.40
24232;DHT22;12364;47.810;8.810;2023-02-13T09:28:31;7.90;97.40
24232;DHT22;12364;47.810;8.810;2023-02-13T09:30:59;7.90;97.40
24232;DHT22;12364;47.810;8.810;2023-02-13T09:33:26;8.00;97.50
24232;DHT22;12364;47.810;8.810;2023-02-13T09:35:53;7.90;97.40
24232;DHT22;12364;47.810;8.810;2023-02-13T09:38:20;7.90;97.40
24232;DHT22;12364;47.810;8.810;2023-02-13T09:40:48;7.90;97.50
24232;DHT22;12364;47.810;8.810;2023-02-13T09:43:19;7.90;97.50
24232;DHT22;12364;47.810;8.810;2023-02-13T09:45:48;7.90;97.60
24232;DHT22;12364;47.810;8.810;2023-02-13T09:48:27;8.00;97.60
24232;DHT22;12364;47.810;8.810;2023-02-13T09:50:56;8.00;97.40
24232;DHT22;12364;47.810;8.810;2023-02-13T09:53:23;8.00;97.50
24232;DHT22;12364;47.810;8.810;2023-02-13T09:56:12;8.10;97.40
24232;DHT22;12364;47.810;8.810;2023-02-13T10:01:30;8.10;97.40
24232;DHT22;12364;47.810;8.810;2023-02-13T10:06:33;8.20;97.30
24232;DHT22;12364;47.810;8.810;2023-02-13T10:09:48;8.20;97.30
24232;DHT22;12364;47.810;8.810;2023-02-13T10:14:22;8.20;97.20
24232;DHT22;12364;47.810;8.810;2023-02-13T10:16:54;8.20;97.10
24232;DHT22;12364;47.810;8.810;2023-02-13T10:19:41;8.20;97.10
24232;DHT22;12364;47.810;8.810;2023-02-13T10:22:11;8.20;96.90
24232;DHT22;12364;47.810;8.810;2023-02-13T10:27:30;8.10;97.10
24232;DHT22;12364;47.810;8.810;2023-02-13T10:30:00;8.10;97.00
24232;DHT22;12364;47.810;8.810;2023-02-13T10:32:45;8.10;97.00
24232;DHT22;12364;47.810;8.810;2023-02-13T10:35:34;8.10;97.20
24232;DHT22;12364;47.810;8.810;2023-02-13T10:38:00;8.10;97.20
24232;DHT22;12364;47.810;8.810;2023-02-13T10:40:31;8.10;97.10
24232;DHT22;12364;47.810;8.810;2023-02-13T10:43:08;8.20;97.20
24232;DHT22;12364;47.810;8.810;2023-02-13T10:51:04;8.30;97.10
24232;DHT22;12364;47.810;8.810;2023-02-13T10:53:39;8.30;97.10
24232;DHT22;12364;47.810;8.810;2023-02-13T11:01:12;8.30;96.80
24232;DHT22;12364;47.810;8.810;2023-02-13T11:03:42;8.30;96.90
24232;DHT22;12364;47.810;8.810;2023-02-13T11:06:14;8.30;97.00
24232;DHT22;12364;47.810;8.810;2023-02-13T11:08:43;8.40;96.90
24232;DHT22;12364;47.810;8.810;2023-02-13T11:11:30;8.40;96.90
24232;DHT22;12364;47.810;8.810;2023-02-13T11:14:17;8.40;96.70
24232;DHT22;12364;47.810;8.810;2023-02-13T11:16:48;8.40;96.80
24232;DHT22;12364;47.810;8.810;2023-02-13T11:21:56;8.40;97.10
24232;DHT22;12364;47.810;8.810;2023-02-13T11:24:24;8.50;97.00
24232;DHT22;12364;47.810;8.810;2023-02-13T11:26:59;8.50;96.90
24232;DHT22;12364;47.810;8.810;2023-02-13T11:29:28;8.50;96.80
24232;DHT22;12364;47.810;8.810;2023-02-13T11:34:28;8.50;96.40
24232;DHT22;12364;47.810;8.810;2023-02-13T11:39:38;8.50;96.70
24232;DHT22;12364;47.810;8.810;2023-02-13T11:44:53;8.60;96.50
24232;DHT22;12364;47.810;8.810;2023-02-13T11:49:57;8.50;96.50
24232;DHT22;12364;47.810;8.810;2023-02-13T11:54:55;8.60;96.90
24232;DHT22;12364;47.810;8.810;2023-02-13T11:57:24;8.60;96.90
24232;DHT22;12364;47.810;8.810;2023-02-13T11:59:54;8.70;96.70
24232;DHT22;12364;47.810;8.810;2023-02-13T12:04:49;8.70;96.50
24232;DHT22;12364;47.810;8.810;2023-02-13T12:09:52;8.70;96.40
24232;DHT22;12364;47.810;8.810;2023-02-13T12:12:24;8.70;96.60
24232;DHT22;12364;47.810;8.810;2023-02-13T12:14:53;8.70;96.50
24232;DHT22;12364;47.810;8.810;2023-02-13T12:17:22;8.70;96.30
24232;DHT22;12364;47.810;8.810;2023-02-13T12:19:58;8.70;96.60
24232;DHT22;12364;47.810;8.810;2023-02-13T12:25:17;8.60;96.40
24232;DHT22;12364;47.810;8.810;2023-02-13T12:28:21;8.70;96.60
24232;DHT22;12364;47.810;8.810;2023-02-13T12:38:19;8.60;96.60
24232;DHT22;12364;47.810;8.810;2023-02-13T12:48:39;8.80;96.60
24232;DHT22;12364;47.810;8.810;2023-02-13T12:56:12;8.80;96.10
24232;DHT22;12364;47.810;8.810;2023-02-13T13:04:03;8.70;96.50
24232;DHT22;12364;47.810;8.810;2023-02-13T13:06:43;8.70;96.50
24232;DHT22;12364;47.810;8.810;2023-02-13T13:09:29;8.80;96.60
24232;DHT22;12364;47.810;8.810;2023-02-13T13:12:21;8.80;96.50
24232;DHT22;12364;47.810;8.810;2023-02-13T13:14:54;8.90;96.50
24232;DHT22;12364;47.810;8.810;2023-02-13T13:22:41;9.00;96.40
24232;DHT22;12364;47.810;8.810;2023-02-13T13:28:03;9.00;96.10
24232;DHT22;12364;47.810;8.810;2023-02-13T13:30:34;9.00;96.20
24232;DHT22;12364;47.810;8.810;2023-02-13T13:33:09;9.00;96.30
24232;DHT22;12364;47.810;8.810;2023-02-13T13:35:37;9.10;96.20
24232;DHT22;12364;47.810;8.810;2023-02-13T13:38:13;9.10;96.10
24232;DHT22;12364;47.810;8.810;2023-02-13T13:43:18;9.10;96.00
24232;DHT22;12364;47.810;8.810;2023-02-13T13:50:51;9.00;95.80
24232;DHT22;12364;47.810;8.810;2023-02-13T13:53:19;9.00;96.00
24232;DHT22;12364;47.810;8.810;2023-02-13T14:03:41;9.10;96.00
24232;DHT22;12364;47.810;8.810;2023-02-13T14:06:14;9.10;96.10
24232;DHT22;12364;47.810;8.810;2023-02-13T14:11:24;9.10;95.70
24232;DHT22;12364;47.810;8.810;2023-02-13T14:13:51;9.10;95.80
24232;DHT22;12364;47.810;8.810;2023-02-13T14:16:38;9.20;95.70
24232;DHT22;12364;47.810;8.810;2023-02-13T14:19:05;9.20;95.60
24232;DHT22;12364;47.810;8.810;2023-02-13T14:21:48;9.20;95.70
24232;DHT22;12364;47.810;8.810;2023-02-13T14:24:15;9.20;95.50
24232;DHT22;12364;47.810;8.810;2023-02-13T14:26:48;9.20;95.40
24232;DHT22;12364;47.810;8.810;2023-02-13T14:29:31;9.20;95.60
24232;DHT22;12364;47.810;8.810;2023-02-13T14:32:00;9.20;95.30
24232;DHT22;12364;47.810;8.810;2023-02-13T14:34:31;9.20;95.30
24232;DHT22;12364;47.810;8.810;2023-02-13T14:37:16;9.20;95.50
24232;DHT22;12364;47.810;8.810;2023-02-13T14:42:50;9.10;95.40
24232;DHT22;12364;47.810;8.810;2023-02-13T14:45:20;9.10;95.50
24232;DHT22;12364;47.810;8.810;2023-02-13T14:47:49;9.10;95.50
24232;DHT22;12364;47.810;8.810;2023-02-13T14:50:21;9.10;95.50
24232;DHT22;12364;47.810;8.810;2023-02-13T14:52:49;9.20;95.50
24232;DHT22;12364;47.810;8.810;2023-02-13T14:55:22;9.10;95.30
24232;DHT22;12364;47.810;8.810;2023-02-13T14:58:05;9.10;95.30
24232;DHT22;12364;47.810;8.810;2023-02-13T15:00:43;9.10;95.70
24232;DHT22;12364;47.810;8.810;2023-02-13T15:03:26;9.20;95.70
24232;DHT22;12364;47.810;8.810;2023-02-13T15:05:55;9.20;95.70
24232;DHT22;12364;47.810;8.810;2023-02-13T15:08:25;9.30;95.60
24232;DHT22;12364;47.810;8.810;2023-02-13T15:10:54;9.40;95.50
24232;DHT22;12364;47.810;8.810;2023-02-13T15:13:22;9.30;95.50
24232;DHT22;12364;47.810;8.810;2023-02-13T15:16:00;9.30;95.40
24232;DHT22;12364;47.810;8.810;2023-02-13T15:18:29;9.30;95.50
24232;DHT22;12364;47.810;8.810;2023-02-13T15:20:57;9.40;95.50
24232;DHT22;12364;47.810;8.810;2023-02-13T15:23:30;9.40;95.30
24232;DHT22;12364;47.810;8.810;2023-02-13T15:26:07;9.40;95.20
24232;DHT22;12364;47.810;8.810;2023-02-13T15:28:34;9.40;95.20
24232;DHT22;12364;47.810;8.810;2023-02-13T15:31:05;9.40;95.10
24232;DHT22;12364;47.810;8.810;2023-02-13T15:33:47;9.40;95.30
24232;DHT22;12364;47.810;8.810;2023-02-13T15:36:20;9.40;95.20
24232;DHT22;12364;47.810;8.810;2023-02-13T15:38:48;9.30;95.20
24232;DHT22;12364;47.810;8.810;2023-02-13T15:41:19;9.30;95.10
24232;DHT22;12364;47.810;8.810;2023-02-13T15:43:51;9.30;95.20
24232;DHT22;12364;47.810;8.810;2023-02-13T15:46:26;9.30;95.10
24232;DHT22;12364;47.810;8.810;2023-02-13T15:48:54;9.30;95.00
24232;DHT22;12364;47.810;8.810;2023-02-13T15:51:23;9.20;95.00
24232;DHT22;12364;47.810;8.810;2023-02-13T15:53:54;9.20;95.00
24232;DHT22;12364;47.810;8.810;2023-02-13T15:56:21;9.20;95.00
24232;DHT22;12364;47.810;8.810;2023-02-13T15:58:48;9.10;94.90
24232;DHT22;12364;47.810;8.810;2023-02-13T16:01:16;9.10;95.00
24232;DHT22;12364;47.810;8.810;2023-02-13T16:03:44;9.00;95.00
24232;DHT22;12364;47.810;8.810;2023-02-13T16:06:12;9.10;95.10
24232;DHT22;12364;47.810;8.810;2023-02-13T16:08:43;9.00;95.00
24232;DHT22;12364;47.810;8.810;2023-02-13T16:11:16;9.00;95.00
24232;DHT22;12364;47.810;8.810;2023-02-13T16:14:17;9.00;94.90
24232;DHT22;12364;47.810;8.810;2023-02-13T16:22:05;8.90;94.50
24232;DHT22;12364;47.810;8.810;2023-02-13T16:24:33;8.80;94.50
24232;DHT22;12364;47.810;8.810;2023-02-13T16:27:01;8.70;94.60
24232;DHT22;12364;47.810;8.810;2023-02-13T16:29:28;8.70;94.40
24232;DHT22;12364;47.810;8.810;2023-02-13T16:32:02;8.70;94.40
24232;DHT22;12364;47.810;8.810;2023-02-13T16:34:29;8.70;94.40
24232;DHT22;12364;47.810;8.810;2023-02-13T16:36:56;8.60;94.50
24232;DHT22;12364;47.810;8.810;2023-02-13T16:39:30;8.60;94.40
24232;DHT22;12364;47.810;8.810;2023-02-13T16:41:58;8.50;94.40
24232;DHT22;12364;47.810;8.810;2023-02-13T16:44:27;8.40;94.40
24232;DHT22;12364;47.810;8.810;2023-02-13T16:47:03;8.40;94.30
24232;DHT22;12364;47.810;8.810;2023-02-13T16:49:34;8.30;94.50
24232;DHT22;12364;47.810;8.810;2023-02-13T16:54:38;8.30;94.40
24232;DHT22;12364;47.810;8.810;2023-02-13T17:07:38;7.90;94.50
24232;DHT22;12364;47.810;8.810;2023-02-13T17:12:36;7.90;94.80
24232;DHT22;12364;47.810;8.810;2023-02-13T17:15:04;7.80;94.70
24232;DHT22;12364;47.810;8.810;2023-02-13T17:17:31;7.80;94.80
24232;DHT22;12364;47.810;8.810;2023-02-13T17:19:58;7.80;94.80
24232;DHT22;12364;47.810;8.810;2023-02-13T17:22:27;7.70;95.00
24232;DHT22;12364;47.810;8.810;2023-02-13T17:24:56;7.70;94.90
24232;DHT22;12364;47.810;8.810;2023-02-13T17:27:23;7.70;94.80
24232;DHT22;12364;47.810;8.810;2023-02-13T17:29:50;7.60;94.60
24232;DHT22;12364;47.810;8.810;2023-02-13T17:32:21;7.70;94.60
24232;DHT22;12364;47.810;8.810;2023-02-13T17:34:49;7.60;94.50
24232;DHT22;12364;47.810;8.810;2023-02-13T17:37:20;7.80;94.60
24232;DHT22;12364;47.810;8.810;2023-02-13T17:39:47;7.60;94.30
24232;DHT22;12364;47.810;8.810;2023-02-13T17:42:15;7.60;94.10
24232;DHT22;12364;47.810;8.810;2023-02-13T17:44:43;7.50;94.10
24232;DHT22;12364;47.810;8.810;2023-02-13T17:47:10;7.50;93.90
24232;DHT22;12364;47.810;8.810;2023-02-13T17:49:37;7.40;94.00
24232;DHT22;12364;47.810;8.810;2023-02-13T17:52:04;7.40;94.00
24232;DHT22;12364;47.810;8.810;2023-02-13T17:54:31;7.30;94.00
24232;DHT22;12364;47.810;8.810;2023-02-13T17:57:01;7.30;94.10
24232;DHT22;12364;47.810;8.810;2023-02-13T17:59:28;7.30;93.90
24232;DHT22;12364;47.810;8.810;2023-02-13T18:01:55;7.30;93.90
24232;DHT22;12364;47.810;8.810;2023-02-13T18:04:22;7.30;94.00
24232;DHT22;12364;47.810;8.810;2023-02-13T18:06:50;7.30;94.00
24232;DHT22;12364;47.810;8.810;2023-02-13T18:09:19;7.20;94.00
24232;DHT22;12364;47.810;8.810;2023-02-13T18:11:47;7.20;94.10
24232;DHT22;12364;47.810;8.810;2023-02-13T18:14:30;7.20;94.00
24232;DHT22;12364;47.810;8.810;2023-02-13T18:16:57;7.10;94.00
24232;DHT22;12364;47.810;8.810;2023-02-13T18:19:24;7.10;93.90
24232;DHT22;12364;47.810;8.810;2023-02-13T18:21:52;7.10;93.70
24232;DHT22;12364;47.810;8.810;2023-02-13T18:24:18;7.00;93.90
24232;DHT22;12364;47.810;8.810;2023-02-13T18:26:45;7.00;93.80
24232;DHT22;12364;47.810;8.810;2023-02-13T18:29:12;7.00;94.00
24232;DHT22;12364;47.810;8.810;2023-02-13T18:31:39;6.90;94.00
24232;DHT22;12364;47.810;8.810;2023-02-13T18:34:06;6.90;94.00
24232;DHT22;12364;47.810;8.810;2023-02-13T18:36:33;6.90;94.00
24232;DHT22;12364;47.810;8.810;2023-02-13T18:39:00;7.00;93.80
24232;DHT22;12364;47.810;8.810;2023-02-13T18:41:27;6.90;93.60
24232;DHT22;12364;47.810;8.810;2023-02-13T18:43:55;6.90;93.30
24232;DHT22;12364;47.810;8.810;2023-02-13T18:46:23;7.00;93.20
24232;DHT22;12364;47.810;8.810;2023-02-13T18:48:50;6.90;92.90
24232;DHT22;12364;47.810;8.810;2023-02-13T18:51:17;6.90;93.00
24232;DHT22;12364;47.810;8.810;2023-02-13T18:53:44;6.70;93.10
24232;DHT22;12364;47.810;8.810;2023-02-13T18:56:11;6.60;93.30
24232;DHT22;12364;47.810;8.810;2023-02-13T18:58:38;6.60;93.30
24232;DHT22;12364;47.810;8.810;2023-02-13T19:01:09;6.70;93.30
24232;DHT22;12364;47.810;8.810;2023-02-13T19:03:37;6.70;93.30
24232;DHT22;12364;47.810;8.810;2023-02-13T19:06:08;6.60;93.50
24232;DHT22;12364;47.810;8.810;2023-02-13T19:08:35;6.60;93.80
24232;DHT22;12364;47.810;8.810;2023-02-13T19:11:06;6.70;94.00
24232;DHT22;12364;47.810;8.810;2023-02-13T19:13:33;6.70;94.20
24232;DHT22;12364;47.810;8.810;2023-02-13T19:16:04;6.70;94.50
24232;DHT22;12364;47.810;8.810;2023-02-13T19:18:34;6.80;94.70
24232;DHT22;12364;47.810;8.810;2023-02-13T19:21:02;6.80;94.80
24232;DHT22;12364;47.810;8.810;2023-02-13T19:23:29;6.80;94.80
24232;DHT22;12364;47.810;8.810;2023-02-13T19:25:56;6.80;94.80
24232;DHT22;12364;47.810;8.810;2023-02-13T19:28:23;6.80;95.00
24232;DHT22;12364;47.810;8.810;2023-02-13T19:30:50;6.80;95.10
24232;DHT22;12364;47.810;8.810;2023-02-13T19:33:18;6.90;95.20
24232;DHT22;12364;47.810;8.810;2023-02-13T19:35:55;6.90;95.20
24232;DHT22;12364;47.810;8.810;2023-02-13T19:38:22;6.80;95.20
24232;DHT22;12364;47.810;8.810;2023-02-13T19:40:49;6.80;95.20
24232;DHT22;12364;47.810;8.810;2023-02-13T19:43:16;6.80;95.20
24232;DHT22;12364;47.810;8.810;2023-02-13T19:45:43;6.80;95.10
24232;DHT22;12364;47.810;8.810;2023-02-13T19:48:10;6.80;95.10
24232;DHT22;12364;47.810;8.810;2023-02-13T19:50:37;6.80;95.20
24232;DHT22;12364;47.810;8.810;2023-02-13T19:53:05;6.80;95.10
24232;DHT22;12364;47.810;8.810;2023-02-13T19:55:33;6.80;95.10
24232;DHT22;12364;47.810;8.810;2023-02-13T19:58:00;6.80;95.10
24232;DHT22;12364;47.810;8.810;2023-02-13T20:00:27;6.80;95.10
24232;DHT22;12364;47.810;8.810;2023-02-13T20:02:58;6.80;95.10
24232;DHT22;12364;47.810;8.810;2023-02-13T20:05:25;6.80;95.10
24232;DHT22;12364;47.810;8.810;2023-02-13T20:07:52;6.80;95.10
24232;DHT22;12364;47.810;8.810;2023-02-13T20:10:19;6.80;95.10
24232;DHT22;12364;47.810;8.810;2023-02-13T20:12:46;6.80;95.10
24232;DHT22;12364;47.810;8.810;2023-02-13T20:15:19;6.80;95.20
24232;DHT22;12364;47.810;8.810;2023-02-13T20:17:46;6.80;95.20
24232;DHT22;12364;47.810;8.810;2023-02-13T20:20:13;6.70;95.10
24232;DHT22;12364;47.810;8.810;2023-02-13T20:22:40;6.90;95.20
24232;DHT22;12364;47.810;8.810;2023-02-13T20:25:07;6.80;95.20
24232;DHT22;12364;47.810;8.810;2023-02-13T20:27:35;6.80;95.10
24232;DHT22;12364;47.810;8.810;2023-02-13T20:30:09;6.90;95.20
24232;DHT22;12364;47.810;8.810;2023-02-13T20:32:36;6.90;95.10
24232;DHT22;12364;47.810;8.810;2023-02-13T20:35:04;6.80;95.00
24232;DHT22;12364;47.810;8.810;2023-02-13T20:37:31;6.80;95.10
24232;DHT22;12364;47.810;8.810;2023-02-13T20:39:58;6.80;95.10
24232;DHT22;12364;47.810;8.810;2023-02-13T20:42:25;6.70;95.10
24232;DHT22;12364;47.810;8.810;2023-02-13T20:44:52;6.80;95.20
24232;DHT22;12364;47.810;8.810;2023-02-13T20:47:19;6.70;95.20
24232;DHT22;12364;47.810;8.810;2023-02-13T20:49:46;6.70;95.40
24232;DHT22;12364;47.810;8.810;2023-02-13T20:52:13;6.80;95.20
24232;DHT22;12364;47.810;8.810;2023-02-13T20:54:40;6.80;95.10
24232;DHT22;12364;47.810;8.810;2023-02-13T20:57:07;6.80;95.20
24232;DHT22;12364;47.810;8.810;2023-02-13T20:59:34;6.80;95.10
24232;DHT22;12364;47.810;8.810;2023-02-13T21:02:01;6.80;95.10
24232;DHT22;12364;47.810;8.810;2023-02-13T21:04:28;6.80;95.00
24232;DHT22;12364;47.810;8.810;2023-02-13T21:06:56;6.70;95.10
24232;DHT22;12364;47.810;8.810;2023-02-13T21:09:23;6.70;95.00
24232;DHT22;12364;47.810;8.810;2023-02-13T21:11:50;6.70;95.00
24232;DHT22;12364;47.810;8.810;2023-02-13T21:14:17;6.70;95.00
24232;DHT22;12364;47.810;8.810;2023-02-13T21:16:44;6.60;95.10
24232;DHT22;12364;47.810;8.810;2023-02-13T21:19:12;6.60;95.10
24232;DHT22;12364;47.810;8.810;2023-02-13T21:21:40;6.60;95.30
24232;DHT22;12364;47.810;8.810;2023-02-13T21:24:11;6.50;95.30
24232;DHT22;12364;47.810;8.810;2023-02-13T21:26:39;6.50;95.20
24232;DHT22;12364;47.810;8.810;2023-02-13T21:29:06;6.50;95.20
24232;DHT22;12364;47.810;8.810;2023-02-13T21:31:37;6.50;95.20
24232;DHT22;12364;47.810;8.810;2023-02-13T21:34:06;6.50;95.10
24232;DHT22;12364;47.810;8.810;2023-02-13T21:36:33;6.50;95.20
24232;DHT22;12364;47.810;8.810;2023-02-13T21:39:01;6.40;95.20
24232;DHT22;12364;47.810;8.810;2023-02-13T21:41:28;6.40;95.20
24232;DHT22;12364;47.810;8.810;2023-02-13T21:43:55;6.40;95.20
24232;DHT22;12364;47.810;8.810;2023-02-13T21:46:26;6.40;95.20
24232;DHT22;12364;47.810;8.810;2023-02-13T21:48:54;6.40;95.30
24232;DHT22;12364;47.810;8.810;2023-02-13T21:51:21;6.50;95.30
24232;DHT22;12364;47.810;8.810;2023-02-13T21:53:49;6.40;95.40
24232;DHT22;12364;47.810;8.810;2023-02-13T21:56:17;6.40;95.40
24232;DHT22;12364;47.810;8.810;2023-02-13T21:58:44;6.40;95.50
24232;DHT22;12364;47.810;8.810;2023-02-13T22:01:21;6.40;95.50
24232;DHT22;12364;47.810;8.810;2023-02-13T22:04:00;6.50;95.50
24232;DHT22;12364;47.810;8.810;2023-02-13T22:06:28;6.50;95.40
24232;DHT22;12364;47.810;8.810;2023-02-13T22:08:57;6.50;95.40
24232;DHT22;12364;47.810;8.810;2023-02-13T22:11:24;6.40;95.50
24232;DHT22;12364;47.810;8.810;2023-02-13T22:13:55;6.50;95.40
24232;DHT22;12364;47.810;8.810;2023-02-13T22:16:22;6.40;95.40
24232;DHT22;12364;47.810;8.810;2023-02-13T22:18:50;6.50;95.50
24232;DHT22;12364;47.810;8.810;2023-02-13T22:21:17;6.50;95.40
24232;DHT22;12364;47.810;8.810;2023-02-13T22:23:45;6.50;95.20
24232;DHT22;12364;47.810;8.810;2023-02-13T22:26:22;6.50;95.00
24232;DHT22;12364;47.810;8.810;2023-02-13T22:28:50;6.50;95.00
24232;DHT22;12364;47.810;8.810;2023-02-13T22:31:17;6.50;94.80
24232;DHT22;12364;47.810;8.810;2023-02-13T22:33:45;6.50;94.80
24232;DHT22;12364;47.810;8.810;2023-02-13T22:36:24;6.50;95.00
24232;DHT22;12364;47.810;8.810;2023-02-13T22:38:51;6.50;95.00
24232;DHT22;12364;47.810;8.810;2023-02-13T22:41:20;6.50;94.90
24232;DHT22;12364;47.810;8.810;2023-02-13T22:43:47;6.50;95.10
24232;DHT22;12364;47.810;8.810;2023-02-13T22:46:15;6.50;95.10